Whispering Oaks, Illinois
Current Conditions -  °F | °C
As of 11:37 AM on Monday 24 Nov 2014 (Local Time) from KPIA Reporting Station
Overcast Overcast  
Wind Chill: -6°   Ceiling: 1500
Heat Index:   Visibility: 10mi
Dew Point: -3°   Wind: 20mph
Humidity: 78%   Direction: 250°WSW
Pressure: 29.53"   Gusts: 28mph
Location:  40.5996°N, 89.5548°W
Report Text: KPIA 241737Z 25017G24KT 10SM OVC015 01/M03 A2953 RMK AO2 PK WND 27031/1705 UPB1657E05SNE1657 P0000 T00061028
Loading
Personal Weather Stations






























Interactive Weather Map New forecast layout! Learn more

10-Day Weather Forecast

Advertisements
Track Severe Weather on mobile